createdAt,value
2023-05-14T00:04:41.396Z,56.87
2023-05-14T00:09:44.226Z,57.67
2023-05-14T00:14:46.896Z,58.25
2023-05-14T00:19:49.604Z,57.82
2023-05-14T00:24:52.525Z,58.27
2023-05-14T00:29:55.238Z,58.40
2023-05-14T00:34:58.745Z,58.55
2023-05-14T00:40:07.027Z,58.91
2023-05-14T00:45:10.320Z,59.33
2023-05-14T00:50:16.557Z,59.81
2023-05-14T00:55:19.760Z,60.11
2023-05-14T01:00:23.026Z,60.00
2023-05-14T01:05:30.325Z,60.48
2023-05-14T01:10:42.419Z,60.14
2023-05-14T01:15:47.866Z,59.85
2023-05-14T01:20:53.865Z,60.25
2023-05-14T01:25:56.587Z,60.13
2023-05-14T01:31:10.767Z,60.31
2023-05-14T01:36:13.793Z,60.77
2023-05-14T01:41:18.531Z,60.74
2023-05-14T01:46:22.002Z,61.88
2023-05-14T01:51:24.809Z,62.07
2023-05-14T01:56:27.845Z,62.25
2023-05-14T02:01:30.791Z,62.17
2023-05-14T02:06:33.781Z,62.41
2023-05-14T02:11:36.686Z,62.18
2023-05-14T02:16:39.457Z,62.31
2023-05-14T02:21:42.249Z,62.22
2023-05-14T02:26:44.945Z,61.99
2023-05-14T02:31:47.638Z,61.46
2023-05-14T02:36:51.267Z,60.57
2023-05-14T02:41:53.982Z,60.55
2023-05-14T02:46:56.841Z,59.39
2023-05-14T02:52:01.196Z,58.34
2023-05-14T02:57:03.912Z,57.04
2023-05-14T03:02:06.803Z,56.24
2023-05-14T03:07:09.966Z,55.39
2023-05-14T03:12:13.157Z,54.50
2023-05-14T03:17:15.868Z,53.95
2023-05-14T03:22:18.720Z,53.20
2023-05-14T03:27:23.822Z,52.12
2023-05-14T03:32:26.681Z,50.95
2023-05-14T03:37:29.535Z,49.35
2023-05-14T03:42:32.353Z,47.02
2023-05-14T03:47:34.963Z,45.08
2023-05-14T03:52:37.577Z,43.67
2023-05-14T03:57:40.886Z,41.71
2023-05-14T04:02:43.811Z,40.44
2023-05-14T04:07:47.116Z,39.43
2023-05-14T04:12:49.825Z,37.68
2023-05-14T04:17:52.656Z,35.82
2023-05-14T04:22:55.555Z,34.66
2023-05-14T04:27:59.008Z,33.43
2023-05-14T04:33:01.993Z,32.21
2023-05-14T04:38:04.589Z,30.84
2023-05-14T04:43:08.316Z,30.25
2023-05-14T04:48:10.925Z,28.98
2023-05-14T04:53:13.666Z,28.05
2023-05-14T04:58:16.354Z,26.58
2023-05-14T05:03:19.240Z,25.77
2023-05-14T05:08:21.761Z,24.91
2023-05-14T05:13:24.122Z,23.78
2023-05-14T05:18:26.867Z,24.33
2023-05-14T05:23:29.583Z,23.22
2023-05-14T05:28:32.707Z,22.79
2023-05-14T05:33:36.088Z,21.76
2023-05-14T05:38:38.634Z,20.90
2023-05-14T05:43:41.541Z,20.86
2023-05-14T05:48:44.332Z,20.07
2023-05-14T05:53:47.183Z,19.64
2023-05-14T05:58:49.981Z,19.30
2023-05-14T06:03:53.389Z,18.80
2023-05-14T06:08:56.159Z,19.34
2023-05-14T06:13:58.932Z,17.74
2023-05-14T06:19:02.394Z,18.08
2023-05-14T06:24:06.484Z,17.16
2023-05-14T06:29:09.049Z,17.25
2023-05-14T06:34:11.838Z,17.10
2023-05-14T06:39:14.486Z,17.19
2023-05-14T06:44:19.392Z,16.43
2023-05-14T06:49:21.985Z,16.81
2023-05-14T06:54:26.034Z,16.56
2023-05-14T06:59:28.822Z,15.24
2023-05-14T07:04:31.803Z,16.34
2023-05-14T07:09:34.492Z,15.98
2023-05-14T07:14:37.286Z,15.69
2023-05-14T07:19:40.254Z,15.45
2023-05-14T07:24:43.094Z,15.37
2023-05-14T07:29:45.776Z,15.59
2023-05-14T07:34:49.152Z,14.69
2023-05-14T07:39:53.107Z,14.49
2023-05-14T07:44:59.116Z,15.28
2023-05-14T07:50:02.744Z,15.19
2023-05-14T07:55:09.533Z,15.78
2023-05-14T08:00:13.136Z,14.93
2023-05-14T08:05:17.060Z,15.58
2023-05-14T08:10:20.773Z,15.83
2023-05-14T08:15:27.882Z,15.96
2023-05-14T08:20:34.798Z,15.73
2023-05-14T08:25:38.291Z,15.77
2023-05-14T08:30:41.160Z,15.29
2023-05-14T08:35:44.002Z,16.17
2023-05-14T08:40:58.153Z,16.02
2023-05-14T08:46:04.801Z,16.05
2023-05-14T08:51:09.227Z,15.94
2023-05-14T08:56:13.097Z,15.29
2023-05-14T09:01:16.049Z,15.63
2023-05-14T09:06:19.504Z,16.07
2023-05-14T09:11:22.170Z,16.06
2023-05-14T09:16:26.549Z,15.53
2023-05-14T09:21:31.584Z,15.64
2023-05-14T09:26:36.358Z,15.58
2023-05-14T09:32:00.586Z,15.59
2023-05-14T09:37:05.855Z,16.12
2023-05-14T09:42:45.862Z,16.02
2023-05-14T09:47:49.104Z,15.57
2023-05-14T09:52:51.940Z,16.28
2023-05-14T09:57:54.650Z,16.55
2023-05-14T10:02:59.008Z,15.93
2023-05-14T10:08:06.416Z,15.88
2023-05-14T10:13:17.858Z,15.67
2023-05-14T10:18:24.499Z,15.20
2023-05-14T10:23:27.584Z,15.77
2023-05-14T10:28:31.292Z,16.42
2023-05-14T10:33:47.371Z,16.34
2023-05-14T10:38:56.836Z,15.74
2023-05-14T10:43:59.833Z,16.15
2023-05-14T10:49:02.593Z,14.94
2023-05-14T10:54:08.662Z,15.62
2023-05-14T10:59:11.842Z,16.41
2023-05-14T11:04:24.344Z,15.31
2023-05-14T11:09:27.378Z,15.93
2023-05-14T11:14:30.062Z,16.00
2023-05-14T11:19:32.494Z,17.86
2023-05-14T11:24:35.163Z,18.41
2023-05-14T11:29:38.491Z,18.60
2023-05-14T11:34:42.594Z,20.73
2023-05-14T11:39:54.181Z,22.00
2023-05-14T11:44:56.996Z,22.82
2023-05-14T11:50:01.222Z,22.28
2023-05-14T11:55:05.351Z,21.84
2023-05-14T12:00:21.806Z,22.64
2023-05-14T12:05:25.746Z,21.91
2023-05-14T12:10:28.355Z,21.71
2023-05-14T12:15:31.775Z,21.90
2023-05-14T12:20:35.972Z,21.74
2023-05-14T12:25:39.201Z,21.77
2023-05-14T12:30:42.075Z,21.40
2023-05-14T12:35:45.297Z,21.46
2023-05-14T12:40:48.109Z,22.15
2023-05-14T12:45:50.914Z,22.51
2023-05-14T12:50:53.531Z,22.58
2023-05-14T12:55:56.247Z,23.16
2023-05-14T13:00:59.153Z,23.27
2023-05-14T13:06:02.005Z,23.64
2023-05-14T13:11:06.216Z,23.79
2023-05-14T13:16:09.119Z,23.80
2023-05-14T13:21:12.888Z,24.64
2023-05-14T13:26:16.286Z,24.16
2023-05-14T13:31:19.164Z,25.12
2023-05-14T13:36:21.932Z,25.33
2023-05-14T13:41:26.631Z,25.52
2023-05-14T13:46:29.612Z,25.50
2023-05-14T13:51:32.164Z,25.69
2023-05-14T13:56:36.143Z,25.90
2023-05-14T14:01:38.857Z,26.05
2023-05-14T14:06:41.821Z,25.35
2023-05-14T14:11:45.746Z,23.34
2023-05-14T14:16:48.592Z,23.62
2023-05-14T14:26:58.661Z,26.29
2023-05-14T14:32:01.730Z,27.08
2023-05-14T14:37:04.811Z,27.80
2023-05-14T14:42:07.745Z,28.32
2023-05-14T14:47:10.581Z,28.57
2023-05-14T14:52:13.255Z,28.67
2023-05-14T14:57:16.012Z,29.30
2023-05-14T15:02:18.902Z,29.59
2023-05-14T15:07:22.932Z,29.64
2023-05-14T15:12:25.743Z,29.71
2023-05-14T15:17:28.336Z,30.05
2023-05-14T15:22:31.127Z,29.89
2023-05-14T15:27:33.670Z,29.83
2023-05-14T15:32:36.855Z,30.04
2023-05-14T15:37:41.622Z,30.16
2023-05-14T15:42:44.708Z,30.65
2023-05-14T15:47:47.311Z,31.08
2023-05-14T15:52:50.250Z,31.32
2023-05-14T15:57:53.691Z,31.88
2023-05-14T16:02:56.618Z,32.20
2023-05-14T16:07:59.841Z,32.54
2023-05-14T16:13:02.832Z,33.06
2023-05-14T16:18:05.683Z,33.29
2023-05-14T16:23:08.583Z,33.74
2023-05-14T16:28:11.362Z,34.53
2023-05-14T16:33:14.103Z,34.65
2023-05-14T16:38:17.120Z,35.17
2023-05-14T16:43:20.067Z,36.17
2023-05-14T16:48:24.152Z,36.99
2023-05-14T16:53:26.877Z,36.96
2023-05-14T16:58:29.711Z,37.56
2023-05-14T17:03:32.532Z,37.74
2023-05-14T17:08:36.052Z,37.99
2023-05-14T17:13:38.902Z,37.99
2023-05-14T17:18:41.631Z,37.74
2023-05-14T17:23:45.873Z,38.20
2023-05-14T17:28:48.745Z,38.63
2023-05-14T17:33:51.433Z,39.21
2023-05-14T17:38:54.465Z,39.40
2023-05-14T17:43:57.394Z,39.60
2023-05-14T17:49:00.909Z,39.66
2023-05-14T17:54:04.251Z,39.90
2023-05-14T17:59:07.302Z,40.41
2023-05-14T18:04:10.869Z,40.41
2023-05-14T18:09:13.944Z,40.47
2023-05-14T18:14:18.867Z,40.44
2023-05-14T18:19:21.405Z,40.67
2023-05-14T18:24:24.186Z,40.70
2023-05-14T18:29:27.199Z,40.99
2023-05-14T18:34:29.976Z,41.61
2023-05-14T18:39:32.568Z,41.48
2023-05-14T18:44:35.349Z,41.62
2023-05-14T18:49:40.422Z,42.08
2023-05-14T18:54:42.955Z,42.61
2023-05-14T18:59:45.582Z,43.78
2023-05-14T19:04:52.714Z,44.91
2023-05-14T19:09:56.206Z,45.20
2023-05-14T19:14:59.126Z,44.80
2023-05-14T19:20:01.815Z,44.68
2023-05-14T19:25:08.367Z,44.95
2023-05-14T19:30:12.202Z,45.12
2023-05-14T19:35:15.052Z,45.16
2023-05-14T19:40:17.973Z,45.14
2023-05-14T19:45:22.474Z,45.64
2023-05-14T19:50:25.310Z,45.79
2023-05-14T19:55:27.910Z,45.97
2023-05-14T20:00:31.102Z,46.59
2023-05-14T20:05:39.550Z,47.01
2023-05-14T20:10:42.801Z,47.41
2023-05-14T20:15:45.786Z,47.89
2023-05-14T20:20:49.304Z,47.64
2023-05-14T20:25:52.111Z,47.10
2023-05-14T20:30:55.492Z,47.85
2023-05-14T20:35:58.597Z,48.43
2023-05-14T20:41:01.288Z,48.32
2023-05-14T20:46:06.011Z,48.20
2023-05-14T20:51:08.818Z,48.39
2023-05-14T20:56:11.761Z,49.67
2023-05-14T21:01:14.634Z,49.68
2023-05-14T21:06:18.803Z,50.00
2023-05-14T21:11:23.178Z,50.41
2023-05-14T21:16:26.039Z,50.14
2023-05-14T21:21:28.686Z,50.25
2023-05-14T21:26:37.113Z,50.50
2023-05-14T21:31:39.764Z,50.71
2023-05-14T21:36:42.749Z,49.91
2023-05-14T21:41:45.406Z,50.32
2023-05-14T21:46:48.443Z,50.01
2023-05-14T21:51:53.307Z,50.16
2023-05-14T21:56:56.224Z,50.86
2023-05-14T22:07:05.160Z,51.71
2023-05-14T22:12:08.162Z,51.83
2023-05-14T22:17:13.016Z,52.13
2023-05-14T22:22:15.684Z,52.76
2023-05-14T22:27:18.728Z,52.20
2023-05-14T22:32:21.908Z,52.71
2023-05-14T22:37:24.845Z,53.03
2023-05-14T22:42:28.713Z,52.60
2023-05-14T22:47:31.826Z,51.92
2023-05-14T22:52:34.613Z,51.81
2023-05-14T22:57:37.573Z,51.68
2023-05-14T23:02:40.625Z,51.63
2023-05-14T23:07:43.919Z,51.67
2023-05-14T23:12:46.751Z,51.41
2023-05-14T23:17:49.702Z,50.99
2023-05-14T23:22:52.690Z,51.22
2023-05-14T23:27:55.672Z,52.14
2023-05-14T23:32:58.377Z,53.07
2023-05-14T23:38:01.395Z,54.08
2023-05-14T23:43:04.202Z,55.17
2023-05-14T23:48:07.142Z,55.81
2023-05-14T23:53:10.084Z,57.15
2023-05-14T23:58:12.886Z,57.44
